Time;durP1;ratioP1;P1;durP2;ratioP2;P2;SDS_P1;SDS_P2;PMS_P1;PMS_P2;Temp;Humidity;BMP_temperature;BMP_pressure;BME280_temperature;BME280_humidity;BME280_pressure;Samples;Min_cycle;Max_cycle;Signal;HPM_P1;HPM_P2
2022/09/30 00:01:53;;;;;;;70.22;27.85;;;;;;;;;;6160951;28;20949;-62
2022/09/30 00:04:53;;;;;;;67.20;27.73;;;;;;;;;;6160077;28;20042;-62
2022/09/30 00:07:54;;;;;;;63.72;25.33;;;;;;;;;;6163438;28;20089;-62
2022/09/30 00:11:07;;;;;;;83.68;28.27;;;;;;;;;;6163438;28;20061;-63
2022/09/30 00:14:17;;;;;;;69.05;26.63;;;;;;;;;;6159428;28;20039;-63
2022/09/30 00:17:18;;;;;;;75.38;26.10;;;;;;;;;;6159645;28;20062;-62
2022/09/30 00:20:19;;;;;;;60.85;26.27;;;;;;;;;;6161951;28;20054;-62
2022/09/30 00:23:21;;;;;;;67.88;26.73;;;;;;;;;;6163934;28;20055;-62
2022/09/30 00:26:23;;;;;;;66.97;28.17;;;;;;;;;;6162690;28;20392;-62
2022/09/30 00:29:23;;;;;;;70.85;25.90;;;;;;;;;;6164295;28;20145;-60
2022/09/30 00:32:24;;;;;;;62.28;26.55;;;;;;;;;;6163867;28;20565;-63
2022/09/30 00:35:24;;;;;;;76.68;31.95;;;;;;;;;;6164018;28;20054;-62
2022/09/30 00:38:25;;;;;;;74.97;29.77;;;;;;;;;;6164691;28;20129;-63
2022/09/30 00:41:27;;;;;;;73.55;28.58;;;;;;;;;;6164124;28;20039;-63
2022/09/30 00:44:52;;;;;;;68.18;25.73;;;;;;;;;;6164596;28;20161;-62
2022/09/30 00:48:11;;;;;;;58.55;23.90;;;;;;;;;;6160840;28;20561;-63
2022/09/30 00:51:11;;;;;;;66.30;26.45;;;;;;;;;;6154680;28;20146;-63
2022/09/30 00:54:18;;;;;;;74.95;27.65;;;;;;;;;;6166277;28;20521;-63
2022/09/30 00:57:18;;;;;;;73.38;26.83;;;;;;;;;;6164590;28;20074;-63
2022/09/30 01:00:19;;;;;;;66.40;27.00;;;;;;;;;;6163300;28;20043;-62
2022/09/30 01:03:21;;;;;;;75.15;27.48;;;;;;;;;;6164680;28;20193;-63
2022/09/30 01:06:23;;;;;;;74.95;26.08;;;;;;;;;;6164567;28;20050;-62
2022/09/30 01:09:23;;;;;;;67.30;24.90;;;;;;;;;;6163026;28;20533;-63
2022/09/30 01:12:25;;;;;;;65.18;25.27;;;;;;;;;;6164411;28;20053;-63
2022/09/30 01:15:51;;;;;;;70.13;25.10;;;;;;;;;;6164818;28;20089;-63
2022/09/30 01:19:07;;;;;;;63.03;24.50;;;;;;;;;;6162711;28;20062;-63
2022/09/30 01:22:33;;;;;;;69.18;24.35;;;;;;;;;;6161530;28;20144;-62
2022/09/30 01:26:08;;;;;;;68.70;25.50;;;;;;;;;;6162521;28;20058;-62
2022/09/30 01:29:46;;;;;;;66.72;24.08;;;;;;;;;;6161003;28;20138;-63
2022/09/30 01:32:59;;;;;;;67.80;23.45;;;;;;;;;;6163034;28;20129;-62
2022/09/30 01:36:15;;;;;;;70.63;24.73;;;;;;;;;;6162660;28;20074;-62
2022/09/30 01:39:33;;;;;;;69.25;24.27;;;;;;;;;;6162996;28;20078;-62
2022/09/30 01:43:06;;;;;;;65.15;23.73;;;;;;;;;;6162914;28;20139;-63
2022/09/30 01:46:14;;;;;;;;;;;;;;;;;;6165296;28;20042;-63
2022/09/30 01:49:33;;;;;;;71.15;23.52;;;;;;;;;;6164024;28;19949;-62
2022/09/30 01:53:14;;;;;;;65.85;24.48;;;;;;;;;;6162530;28;20051;-63
2022/09/30 01:56:21;;;;;;;69.70;23.98;;;;;;;;;;6162046;28;20089;-63
2022/09/30 01:59:31;;;;;;;67.65;24.80;;;;;;;;;;6162770;28;20513;-62
2022/09/30 02:02:35;;;;;;;61.70;23.50;;;;;;;;;;6162249;28;20477;-63
2022/09/30 02:05:49;;;;;;;63.08;22.80;;;;;;;;;;6162370;28;20150;-63
2022/09/30 02:08:56;;;;;;;71.43;25.02;;;;;;;;;;6163965;28;20078;-63
2022/09/30 02:12:01;;;;;;;72.45;27.77;;;;;;;;;;6163111;28;20055;-63
2022/09/30 02:15:07;;;;;;;75.90;24.88;;;;;;;;;;6161957;28;20133;-63
2022/09/30 02:18:21;;;;;;;67.57;25.70;;;;;;;;;;6160856;28;20043;-63
2022/09/30 02:21:28;;;;;;;71.07;25.40;;;;;;;;;;6162108;28;20613;-62
2022/09/30 02:24:35;;;;;;;63.65;24.75;;;;;;;;;;6163292;28;20174;-62
2022/09/30 02:27:43;;;;;;;69.13;25.70;;;;;;;;;;6161268;28;20093;-62
2022/09/30 02:30:48;;;;;;;69.43;24.30;;;;;;;;;;6162075;28;20039;-63
2022/09/30 02:33:58;;;;;;;68.95;24.30;;;;;;;;;;6162696;28;20114;-62
2022/09/30 02:37:03;;;;;;;65.28;24.58;;;;;;;;;;6161062;28;20043;-62
2022/09/30 02:40:15;;;;;;;65.00;25.50;;;;;;;;;;6161755;28;20079;-63
2022/09/30 02:43:18;;;;;;;65.82;25.30;;;;;;;;;;6163069;28;20046;-63
2022/09/30 02:46:42;;;;;;;71.55;24.40;;;;;;;;;;6161493;28;20082;-63
2022/09/30 02:49:50;;;;;;;67.63;26.25;;;;;;;;;;6161316;28;20053;-63
2022/09/30 02:53:22;;;;;;;70.07;27.25;;;;;;;;;;6162268;28;20117;-63
2022/09/30 02:56:50;;;;;;;70.55;26.92;;;;;;;;;;6158267;28;20043;-63
2022/09/30 02:59:51;;;;;;;74.43;25.85;;;;;;;;;;6158100;28;20590;-62
2022/09/30 03:03:00;;;;;;;72.13;25.17;;;;;;;;;;6161948;28;20034;-63
2022/09/30 03:06:00;;;;;;;69.13;25.48;;;;;;;;;;6158845;28;20494;-62
2022/09/30 03:09:01;;;;;;;68.20;24.65;;;;;;;;;;6160776;28;20045;-62
2022/09/30 03:12:31;;;;;;;68.63;26.08;;;;;;;;;;6162832;28;20051;-62
2022/09/30 03:16:08;;;;;;;68.68;26.90;;;;;;;;;;6148853;28;20170;-64
2022/09/30 03:19:37;;;;;;;71.60;24.55;;;;;;;;;;6160258;28;20568;-63
2022/09/30 03:22:50;;;;;;;70.55;24.85;;;;;;;;;;6160503;28;20058;-63
2022/09/30 03:26:15;;;;;;;65.55;25.30;;;;;;;;;;6160431;28;20038;-63
2022/09/30 03:29:32;;;;;;;73.30;26.48;;;;;;;;;;6166755;28;20050;-62
2022/09/30 03:32:52;;;;;;;77.05;26.65;;;;;;;;;;6161279;28;20047;-63
2022/09/30 03:36:19;;;;;;;73.53;25.50;;;;;;;;;;6161832;28;20038;-63
2022/09/30 03:39:30;;;;;;;73.70;27.30;;;;;;;;;;6161561;28;20449;-63
2022/09/30 03:42:43;;;;;;;74.78;25.40;;;;;;;;;;6158808;28;20855;-63
2022/09/30 03:46:00;;;;;;;71.05;26.15;;;;;;;;;;6159650;28;20057;-63
2022/09/30 03:49:05;;;;;;;82.32;28.85;;;;;;;;;;6159218;28;20509;-63
2022/09/30 03:52:07;;;;;;;94.65;32.92;;;;;;;;;;6161339;28;20151;-63
2022/09/30 03:55:10;;;;;;;93.78;33.70;;;;;;;;;;6160772;28;20050;-63
2022/09/30 03:58:11;;;;;;;97.47;36.13;;;;;;;;;;6163282;28;20050;-63
2022/09/30 04:01:20;;;;;;;99.30;37.58;;;;;;;;;;6165904;28;20097;-63
2022/09/30 04:04:20;;;;;;;98.47;36.15;;;;;;;;;;6164961;28;20181;-63
2022/09/30 04:07:21;;;;;;;98.32;36.47;;;;;;;;;;6164930;28;20039;-63
2022/09/30 04:10:21;;;;;;;95.50;34.55;;;;;;;;;;6165563;28;20057;-62
2022/09/30 04:13:22;;;;;;;92.72;33.55;;;;;;;;;;6164125;28;20042;-63
2022/09/30 04:16:22;;;;;;;92.18;31.40;;;;;;;;;;6168303;28;20166;-62
2022/09/30 04:19:23;;;;;;;86.97;32.85;;;;;;;;;;6168826;28;20426;-64
2022/09/30 04:22:24;;;;;;;92.93;31.10;;;;;;;;;;6171552;28;20138;-64
2022/09/30 04:25:26;;;;;;;89.53;31.00;;;;;;;;;;6171864;28;20035;-65
2022/09/30 04:28:26;;;;;;;82.72;28.65;;;;;;;;;;6170347;28;20120;-63
2022/09/30 04:31:27;;;;;;;87.70;29.88;;;;;;;;;;6172173;28;20541;-63
2022/09/30 04:34:27;;;;;;;77.82;27.00;;;;;;;;;;6172241;28;20146;-63
2022/09/30 04:37:28;;;;;;;78.38;28.08;;;;;;;;;;6170179;28;20394;-63
2022/09/30 04:40:29;;;;;;;82.60;31.52;;;;;;;;;;6171702;28;20580;-64
2022/09/30 04:43:29;;;;;;;75.65;26.35;;;;;;;;;;6179779;28;20112;-63
2022/09/30 04:46:33;;;;;;;69.68;26.17;;;;;;;;;;6194936;28;20089;-63
2022/09/30 04:49:33;;;;;;;76.13;27.17;;;;;;;;;;6156908;28;20102;-63
2022/09/30 04:52:34;;;;;;;92.35;29.80;;;;;;;;;;6164590;28;20050;-64
2022/09/30 04:55:34;;;;;;;103.80;32.47;;;;;;;;;;6161120;28;20047;-63
2022/09/30 04:58:36;;;;;;;94.70;31.33;;;;;;;;;;6161556;28;20420;-63
2022/09/30 05:01:38;;;;;;;104.05;31.30;;;;;;;;;;6160866;28;20047;-64
2022/09/30 05:04:39;;;;;;;89.00;28.73;;;;;;;;;;6166071;28;20634;-64
2022/09/30 05:07:39;;;;;;;90.95;30.05;;;;;;;;;;6168444;28;20034;-63
2022/09/30 05:10:41;;;;;;;83.85;29.38;;;;;;;;;;6161217;28;20141;-63
2022/09/30 05:13:41;;;;;;;84.97;30.20;;;;;;;;;;6163126;28;20051;-63
2022/09/30 05:16:42;;;;;;;84.22;27.65;;;;;;;;;;6168423;28;20051;-64
2022/09/30 05:19:43;;;;;;;82.00;26.73;;;;;;;;;;6174338;28;20055;-63
2022/09/30 05:22:43;;;;;;;79.88;27.45;;;;;;;;;;6190810;28;20039;-64
2022/09/30 05:25:44;;;;;;;79.32;26.40;;;;;;;;;;6173200;28;20045;-64
2022/09/30 05:28:45;;;;;;;81.07;27.65;;;;;;;;;;6170629;28;20134;-64
2022/09/30 05:31:45;;;;;;;82.25;28.27;;;;;;;;;;6170020;28;20507;-64
2022/09/30 05:34:46;;;;;;;82.85;28.83;;;;;;;;;;6167181;28;20085;-64
2022/09/30 05:37:46;;;;;;;79.97;27.52;;;;;;;;;;6160927;28;20050;-64
2022/09/30 05:40:47;;;;;;;79.63;26.95;;;;;;;;;;6163505;28;20074;-64
2022/09/30 05:43:48;;;;;;;79.60;27.50;;;;;;;;;;6165933;28;20553;-63
2022/09/30 05:46:50;;;;;;;87.28;28.83;;;;;;;;;;6167167;28;20057;-62
2022/09/30 05:49:50;;;;;;;97.25;28.55;;;;;;;;;;6166342;28;20133;-64
2022/09/30 05:52:51;;;;;;;95.20;29.25;;;;;;;;;;6166577;28;20074;-64
2022/09/30 05:55:53;;;;;;;91.40;30.05;;;;;;;;;;6165901;28;20191;-64
2022/09/30 05:58:53;;;;;;;103.43;31.08;;;;;;;;;;6166932;28;20051;-64
2022/09/30 06:01:54;;;;;;;86.53;28.08;;;;;;;;;;6167432;28;20814;-63
2022/09/30 06:04:54;;;;;;;100.32;30.33;;;;;;;;;;6170681;28;20118;-63
2022/09/30 06:07:55;;;;;;;87.75;29.80;;;;;;;;;;6166978;28;20047;-64
2022/09/30 06:10:58;;;;;;;97.00;29.40;;;;;;;;;;6167774;28;20078;-63
2022/09/30 06:13:58;;;;;;;88.63;27.58;;;;;;;;;;6168200;28;20105;-62
2022/09/30 06:16:59;;;;;;;83.75;29.38;;;;;;;;;;6164530;28;20078;-63
2022/09/30 06:20:04;;;;;;;70.60;25.45;;;;;;;;;;6166859;28;20062;-64
2022/09/30 06:23:05;;;;;;;75.22;25.83;;;;;;;;;;6161662;28;20101;-64
2022/09/30 06:26:07;;;;;;;73.28;25.92;;;;;;;;;;6160508;28;20043;-64
2022/09/30 06:29:09;;;;;;;81.35;28.58;;;;;;;;;;6158792;28;20411;-65
2022/09/30 06:32:09;;;;;;;76.78;29.17;;;;;;;;;;6161829;28;20047;-64
2022/09/30 06:35:10;;;;;;;65.65;24.38;;;;;;;;;;6163919;28;20065;-64
2022/09/30 06:38:14;;;;;;;70.88;27.30;;;;;;;;;;6160882;28;20204;-63
2022/09/30 06:41:15;;;;;;;72.82;29.05;;;;;;;;;;6158695;28;20446;-63
2022/09/30 06:44:15;;;;;;;77.25;27.48;;;;;;;;;;6167749;28;20046;-63
2022/09/30 06:47:16;;;;;;;75.68;25.80;;;;;;;;;;6164814;28;20050;-63
2022/09/30 06:50:17;;;;;;;75.30;26.73;;;;;;;;;;6172153;28;20049;-64
2022/09/30 06:53:18;;;;;;;77.65;26.60;;;;;;;;;;6168012;28;20062;-65
2022/09/30 06:56:19;;;;;;;73.60;26.10;;;;;;;;;;6164782;28;20414;-63
2022/09/30 06:59:21;;;;;;;78.22;26.60;;;;;;;;;;6172746;28;20082;-63
2022/09/30 07:02:22;;;;;;;73.72;27.50;;;;;;;;;;6160099;28;20053;-63
2022/09/30 07:05:24;;;;;;;73.57;26.88;;;;;;;;;;6161571;28;20038;-64
2022/09/30 07:08:27;;;;;;;;;;;;;;;;;;6165496;28;20051;-62
2022/09/30 07:11:28;;;;;;;79.40;28.05;;;;;;;;;;6167396;28;20341;-63
2022/09/30 07:14:29;;;;;;;75.43;26.77;;;;;;;;;;6172295;28;20077;-62
2022/09/30 07:17:29;;;;;;;75.45;25.58;;;;;;;;;;6167478;28;20050;-63
2022/09/30 07:20:31;;;;;;;77.25;26.98;;;;;;;;;;6167623;28;20490;-62
2022/09/30 07:23:31;;;;;;;67.18;26.73;;;;;;;;;;6168937;28;20138;-62
2022/09/30 07:26:33;;;;;;;73.40;26.33;;;;;;;;;;6166220;28;20061;-62
2022/09/30 07:29:34;;;;;;;;;;;;;;;;;;6166631;28;20042;-62
2022/09/30 07:32:35;;;;;;;66.22;24.10;;;;;;;;;;6174261;28;20012;-64
2022/09/30 07:35:36;;;;;;;69.68;24.48;;;;;;;;;;6177049;28;20043;-62
2022/09/30 07:38:39;;;;;;;64.80;24.45;;;;;;;;;;6173192;28;20487;-63
2022/09/30 07:41:40;;;;;;;70.63;23.75;;;;;;;;;;6168860;28;20081;-64
2022/09/30 07:44:43;;;;;;;71.60;23.98;;;;;;;;;;6155140;28;20137;-63
2022/09/30 07:47:43;;;;;;;70.15;25.45;;;;;;;;;;6162210;28;20066;-63
2022/09/30 07:50:44;;;;;;;77.95;26.98;;;;;;;;;;6159718;28;20271;-63
2022/09/30 07:53:48;;;;;;;68.43;25.20;;;;;;;;;;6155592;28;20574;-62
2022/09/30 07:56:50;;;;;;;71.13;25.35;;;;;;;;;;6157008;28;20109;-63
2022/09/30 07:59:50;;;;;;;62.63;23.55;;;;;;;;;;6157596;28;20054;-62
2022/09/30 08:02:51;;;;;;;67.63;22.95;;;;;;;;;;6158127;28;20160;-63
2022/09/30 08:05:51;;;;;;;63.40;21.55;;;;;;;;;;6163246;28;20046;-62
2022/09/30 08:08:54;;;;;;;56.45;22.15;;;;;;;;;;6163843;28;20061;-63
2022/09/30 08:11:55;;;;;;;55.65;20.65;;;;;;;;;;6156865;28;20100;-63
2022/09/30 08:14:55;;;;;;;54.50;20.05;;;;;;;;;;6161990;28;20051;-63
2022/09/30 08:17:56;;;;;;;55.00;21.23;;;;;;;;;;6156276;28;20059;-63
2022/09/30 08:21:02;;;;;;;56.20;22.92;;;;;;;;;;6158055;28;20125;-63
2022/09/30 08:24:03;;;;;;;56.05;21.65;;;;;;;;;;6156957;28;20042;-63
2022/09/30 08:27:04;;;;;;;52.45;20.63;;;;;;;;;;6154072;28;20859;-62
2022/09/30 08:30:05;;;;;;;61.72;22.30;;;;;;;;;;6158305;28;20406;-63
2022/09/30 08:33:05;;;;;;;58.78;22.33;;;;;;;;;;6153424;28;20046;-63
2022/09/30 08:36:09;;;;;;;61.83;22.05;;;;;;;;;;6157207;28;20038;-62
2022/09/30 08:39:10;;;;;;;60.83;23.50;;;;;;;;;;6156213;28;20565;-62
2022/09/30 08:42:20;;;;;;;70.50;29.23;;;;;;;;;;6154317;28;20061;-63
2022/09/30 08:45:44;;;;;;;60.22;22.67;;;;;;;;;;6154235;28;20063;-63
2022/09/30 08:49:06;;;;;;;58.78;21.35;;;;;;;;;;6157356;28;20078;-62
2022/09/30 08:52:15;;;;;;;49.95;18.80;;;;;;;;;;6156590;28;20051;-62
2022/09/30 08:55:32;;;;;;;57.78;22.35;;;;;;;;;;6159640;28;20758;-63
2022/09/30 08:58:36;;;;;;;51.40;19.65;;;;;;;;;;6161083;28;20047;-63
2022/09/30 09:01:41;;;;;;;55.55;19.55;;;;;;;;;;6157933;28;20097;-62
2022/09/30 09:04:42;;;;;;;48.45;19.30;;;;;;;;;;6159740;28;20042;-63
2022/09/30 09:08:17;;;;;;;53.22;20.92;;;;;;;;;;6161009;28;20050;-63
2022/09/30 09:11:27;;;;;;;45.92;18.38;;;;;;;;;;6159037;28;20058;-62
2022/09/30 09:14:51;;;;;;;47.45;18.40;;;;;;;;;;6154630;28;20158;-63
2022/09/30 09:18:23;;;;;;;53.08;19.88;;;;;;;;;;6155761;28;20042;-63
2022/09/30 09:21:43;;;;;;;58.53;20.60;;;;;;;;;;6154972;28;20065;-63
2022/09/30 09:24:48;;;;;;;55.72;21.05;;;;;;;;;;6159222;28;20058;-65
2022/09/30 09:27:54;;;;;;;46.13;19.25;;;;;;;;;;6159559;28;20054;-64
2022/09/30 09:30:58;;;;;;;53.63;19.52;;;;;;;;;;6158792;28;20063;-61
2022/09/30 09:34:08;;;;;;;56.90;21.23;;;;;;;;;;6159012;28;20039;-64
2022/09/30 09:41:16;;;;;;;57.00;20.75;;;;;;;;;;6159549;28;20137;-63
2022/09/30 09:44:43;;;;;;;58.38;21.83;;;;;;;;;;6158244;28;20062;-63
2022/09/30 09:47:50;;;;;;;69.88;25.05;;;;;;;;;;6158013;28;20162;-63
2022/09/30 09:51:09;;;;;;;69.22;25.13;;;;;;;;;;6160786;28;20062;-65
2022/09/30 09:54:11;;;;;;;66.55;25.38;;;;;;;;;;6158552;28;20474;-68
2022/09/30 09:57:16;;;;;;;67.53;24.58;;;;;;;;;;6158501;28;20122;-65
2022/09/30 10:03:39;;;;;;;58.55;22.80;;;;;;;;;;6156353;28;20054;-62
2022/09/30 10:06:56;;;;;;;59.25;23.85;;;;;;;;;;6157045;28;20170;-63
2022/09/30 10:10:26;;;;;;;59.22;23.33;;;;;;;;;;6157946;28;20110;-63
2022/09/30 10:13:31;;;;;;;64.32;23.73;;;;;;;;;;6157479;28;20724;-63
2022/09/30 10:16:36;;;;;;;52.95;19.30;;;;;;;;;;6159201;28;20057;-63
2022/09/30 10:19:39;;;;;;;57.85;22.67;;;;;;;;;;6158109;28;20086;-63
2022/09/30 10:22:39;;;;;;;59.08;22.38;;;;;;;;;;6154065;28;20059;-64
2022/09/30 10:25:54;;;;;;;50.70;20.73;;;;;;;;;;6158009;28;20035;-65
2022/09/30 10:28:57;;;;;;;56.63;20.55;;;;;;;;;;6158644;28;20047;-63
2022/09/30 10:32:00;;;;;;;60.20;22.88;;;;;;;;;;6153864;28;20504;-62
2022/09/30 10:35:14;;;;;;;52.85;21.20;;;;;;;;;;6158762;28;20042;-63
2022/09/30 10:38:15;;;;;;;50.10;20.35;;;;;;;;;;6158332;28;20158;-63
2022/09/30 10:41:22;;;;;;;57.25;23.50;;;;;;;;;;6155649;28;20058;-63
2022/09/30 10:44:23;;;;;;;54.60;21.27;;;;;;;;;;6156916;28;20046;-64
2022/09/30 10:47:25;;;;;;;54.95;23.15;;;;;;;;;;6155770;28;20061;-63
2022/09/30 10:50:26;;;;;;;80.90;27.75;;;;;;;;;;6158694;28;20646;-64
2022/09/30 10:53:31;;;;;;;56.15;22.58;;;;;;;;;;6154679;28;20039;-64
2022/09/30 10:56:36;;;;;;;60.35;22.88;;;;;;;;;;6153928;28;20058;-64
2022/09/30 10:59:38;;;;;;;57.58;23.52;;;;;;;;;;6158864;28;20038;-64
2022/09/30 11:02:39;;;;;;;51.20;18.92;;;;;;;;;;6153434;28;20057;-62
2022/09/30 11:05:42;;;;;;;53.70;20.15;;;;;;;;;;6158027;28;20510;-62
2022/09/30 11:09:13;;;;;;;56.63;21.88;;;;;;;;;;6158828;28;20253;-64
2022/09/30 11:12:23;;;;;;;64.95;24.10;;;;;;;;;;6155619;28;20054;-63
2022/09/30 11:15:39;;;;;;;47.22;20.05;;;;;;;;;;6156520;28;20050;-62
2022/09/30 11:19:10;;;;;;;52.22;20.10;;;;;;;;;;6157553;28;20065;-62
2022/09/30 11:22:22;;;;;;;49.38;19.48;;;;;;;;;;6155872;28;20082;-63
2022/09/30 11:25:30;;;;;;;51.10;20.08;;;;;;;;;;6157164;28;20418;-63
2022/09/30 11:28:54;;;;;;;45.30;20.15;;;;;;;;;;6156921;28;20039;-63
2022/09/30 11:32:24;;;;;;;48.15;19.30;;;;;;;;;;6154930;28;20161;-63
2022/09/30 11:35:43;;;;;;;41.60;17.75;;;;;;;;;;6151868;28;20166;-62
2022/09/30 11:39:22;;;;;;;40.60;18.33;;;;;;;;;;6156881;28;20102;-62
2022/09/30 11:42:23;;;;;;;42.15;17.63;;;;;;;;;;6130752;28;20048;-63
2022/09/30 11:45:35;;;;;;;41.00;16.58;;;;;;;;;;6155750;28;20051;-62
2022/09/30 11:48:48;;;;;;;38.33;16.90;;;;;;;;;;6158015;28;20722;-62
2022/09/30 11:52:07;;;;;;;33.97;15.23;;;;;;;;;;6156896;28;20051;-65
2022/09/30 11:55:28;;;;;;;37.78;16.85;;;;;;;;;;6157229;28;20475;-63
2022/09/30 11:58:35;;;;;;;38.45;16.23;;;;;;;;;;6156185;28;20495;-62
2022/09/30 12:01:46;;;;;;;35.97;16.27;;;;;;;;;;6155406;28;20090;-61
2022/09/30 12:04:48;;;;;;;45.65;18.05;;;;;;;;;;6157730;28;20055;-61
2022/09/30 12:07:56;;;;;;;53.85;19.25;;;;;;;;;;6156384;28;20059;-62
2022/09/30 12:11:02;;;;;;;40.38;17.52;;;;;;;;;;6156708;28;20164;-63
2022/09/30 12:14:12;;;;;;;39.35;16.75;;;;;;;;;;6155674;28;20058;-62
2022/09/30 12:17:30;;;;;;;38.08;16.45;;;;;;;;;;6158569;28;20043;-62
2022/09/30 12:20:43;;;;;;;33.17;14.00;;;;;;;;;;6160312;28;20137;-61
2022/09/30 12:23:47;;;;;;;32.47;13.80;;;;;;;;;;6158283;28;20053;-62
2022/09/30 12:26:49;;;;;;;42.28;17.05;;;;;;;;;;6162128;28;20074;-64
2022/09/30 12:30:16;;;;;;;46.75;18.48;;;;;;;;;;6162231;28;20059;-62
2022/09/30 12:33:53;;;;;;;61.33;23.58;;;;;;;;;;6158012;28;20150;-63
2022/09/30 12:37:09;;;;;;;64.38;23.63;;;;;;;;;;6139145;28;20093;-62
2022/09/30 12:40:38;;;;;;;64.15;24.48;;;;;;;;;;6159004;28;20157;-62
2022/09/30 12:43:42;;;;;;;60.42;24.08;;;;;;;;;;6158342;28;20786;-62
2022/09/30 12:47:03;;;;;;;58.92;23.77;;;;;;;;;;6156881;28;20138;-61
2022/09/30 12:50:07;;;;;;;63.08;23.75;;;;;;;;;;6159120;28;20039;-62
2022/09/30 12:53:16;;;;;;;55.90;24.42;;;;;;;;;;6159583;28;20146;-62
2022/09/30 12:56:18;;;;;;;57.88;22.33;;;;;;;;;;6161048;28;20105;-63
2022/09/30 12:59:25;;;;;;;63.65;24.17;;;;;;;;;;6159760;28;20059;-63
2022/09/30 13:02:40;;;;;;;55.85;22.02;;;;;;;;;;6153633;28;20058;-61
2022/09/30 13:05:42;;;;;;;69.88;26.63;;;;;;;;;;6157664;28;20085;-62
2022/09/30 13:09:08;;;;;;;65.40;25.25;;;;;;;;;;6153232;28;20074;-62
2022/09/30 13:12:23;;;;;;;70.63;26.67;;;;;;;;;;6147770;28;20824;-62
2022/09/30 13:15:29;;;;;;;74.32;26.50;;;;;;;;;;6157371;28;20055;-63
2022/09/30 13:18:32;;;;;;;68.65;24.52;;;;;;;;;;6157871;28;20058;-62
2022/09/30 13:21:33;;;;;;;69.20;25.95;;;;;;;;;;6155569;28;20062;-62
2022/09/30 13:25:03;;;;;;;55.85;23.83;;;;;;;;;;6156479;28;20461;-62
2022/09/30 13:28:13;;;;;;;55.35;23.33;;;;;;;;;;6155369;28;20412;-62
2022/09/30 13:31:22;;;;;;;59.65;23.98;;;;;;;;;;6156683;28;20580;-62
2022/09/30 13:34:29;;;;;;;65.70;26.52;;;;;;;;;;6156738;28;20074;-62
2022/09/30 13:37:36;;;;;;;58.25;21.55;;;;;;;;;;6156489;28;20063;-62
2022/09/30 13:40:48;;;;;;;59.78;24.40;;;;;;;;;;6157351;28;20135;-62
2022/09/30 13:44:09;;;;;;;66.63;25.52;;;;;;;;;;6149384;28;20138;-63
2022/09/30 13:47:14;;;;;;;54.15;21.70;;;;;;;;;;6138174;28;20574;-63
2022/09/30 13:50:32;;;;;;;59.28;23.05;;;;;;;;;;6139395;28;20106;-63
2022/09/30 13:53:40;;;;;;;63.47;24.25;;;;;;;;;;6136874;28;20055;-63
2022/09/30 13:56:42;;;;;;;62.90;25.00;;;;;;;;;;6139236;28;20057;-63
2022/09/30 13:59:54;;;;;;;67.20;28.33;;;;;;;;;;6139141;28;20050;-63
2022/09/30 14:03:39;;;;;;;78.22;29.27;;;;;;;;;;6142826;28;20047;-63
2022/09/30 14:06:44;;;;;;;65.78;26.45;;;;;;;;;;6143307;28;20047;-63
2022/09/30 14:09:50;;;;;;;59.40;24.38;;;;;;;;;;6138396;28;20059;-61
2022/09/30 14:13:18;;;;;;;64.63;25.95;;;;;;;;;;6140000;28;20067;-60
2022/09/30 14:16:42;;;;;;;66.00;25.02;;;;;;;;;;6138170;28;20062;-61
2022/09/30 14:19:47;;;;;;;60.08;23.85;;;;;;;;;;6138623;28;20084;-61
2022/09/30 14:22:48;;;;;;;65.03;24.52;;;;;;;;;;6137306;28;20053;-61
2022/09/30 14:25:59;;;;;;;66.95;25.95;;;;;;;;;;6138360;28;20130;-61
2022/09/30 14:29:37;;;;;;;66.95;25.88;;;;;;;;;;6140324;28;20138;-61
2022/09/30 14:32:46;;;;;;;63.88;24.63;;;;;;;;;;6140194;28;20114;-62
2022/09/30 14:35:47;;;;;;;58.75;22.88;;;;;;;;;;6142974;28;20122;-61
2022/09/30 14:38:57;;;;;;;61.22;23.73;;;;;;;;;;6138201;28;21033;-62
2022/09/30 14:42:03;;;;;;;66.10;24.67;;;;;;;;;;6145410;28;20046;-62
2022/09/30 14:45:06;;;;;;;56.80;24.45;;;;;;;;;;6139975;28;20151;-62
2022/09/30 14:48:18;;;;;;;59.78;23.42;;;;;;;;;;6141278;28;20093;-64
2022/09/30 14:51:20;;;;;;;62.90;22.70;;;;;;;;;;6138251;28;20912;-63
2022/09/30 14:54:25;;;;;;;61.33;23.37;;;;;;;;;;6137658;28;20055;-63
2022/09/30 14:57:26;;;;;;;63.40;25.27;;;;;;;;;;6138867;28;20093;-64
2022/09/30 15:00:30;;;;;;;65.07;24.38;;;;;;;;;;6140119;28;20063;-61
2022/09/30 15:03:38;;;;;;;65.30;25.42;;;;;;;;;;6137053;28;20074;-62
2022/09/30 15:06:44;;;;;;;59.55;23.08;;;;;;;;;;6138122;28;20652;-63
2022/09/30 15:09:46;;;;;;;70.78;26.33;;;;;;;;;;6141081;28;20047;-64
2022/09/30 15:12:49;;;;;;;;;;;;;;;;;;6138867;28;20148;-65
2022/09/30 15:15:50;;;;;;;69.95;25.65;;;;;;;;;;6142526;28;19930;-65
2022/09/30 15:18:52;;;;;;;64.40;24.38;;;;;;;;;;6140289;28;20090;-66
2022/09/30 15:21:55;;;;;;;77.90;28.65;;;;;;;;;;6137613;28;20403;-66
2022/09/30 15:24:58;;;;;;;80.30;30.23;;;;;;;;;;6137335;28;20171;-62
2022/09/30 15:27:59;;;;;;;75.30;30.60;;;;;;;;;;6138960;28;20058;-62
2022/09/30 15:31:00;;;;;;;75.28;27.67;;;;;;;;;;6139578;28;20490;-64
2022/09/30 15:34:13;;;;;;;73.72;25.05;;;;;;;;;;6136645;28;20051;-63
2022/09/30 15:37:28;;;;;;;68.80;25.80;;;;;;;;;;6139715;28;20506;-64
2022/09/30 15:43:52;;;;;;;82.75;28.95;;;;;;;;;;6145807;28;20160;-66
2022/09/30 15:47:08;;;;;;;76.68;26.75;;;;;;;;;;6153652;28;20194;-64
2022/09/30 15:50:37;;;;;;;72.22;26.38;;;;;;;;;;6155298;28;20205;-64
2022/09/30 15:53:39;;;;;;;68.53;26.10;;;;;;;;;;6157168;28;20050;-65
2022/09/30 15:56:41;;;;;;;65.03;23.80;;;;;;;;;;6157609;28;20095;-61
2022/09/30 15:59:59;;;;;;;;;;;;;;;;;;6161128;28;20055;-61
2022/09/30 16:03:17;;;;;;;70.60;25.85;;;;;;;;;;6158158;28;20024;-61
2022/09/30 16:06:24;;;;;;;74.13;28.20;;;;;;;;;;6159948;28;20047;-64
2022/09/30 16:09:34;;;;;;;82.63;30.00;;;;;;;;;;6159247;28;20074;-63
2022/09/30 16:12:35;;;;;;;112.80;37.70;;;;;;;;;;6158333;28;20516;-64
2022/09/30 16:15:40;;;;;;;96.90;35.47;;;;;;;;;;6160855;28;20046;-64
2022/09/30 16:18:42;;;;;;;97.15;35.03;;;;;;;;;;6158720;28;20054;-61
2022/09/30 16:21:49;;;;;;;102.60;40.25;;;;;;;;;;6155752;28;20169;-61
2022/09/30 16:25:02;;;;;;;84.68;31.60;;;;;;;;;;6157579;28;20065;-62
2022/09/30 16:28:13;;;;;;;;;;;;;;;;;;6159417;28;20062;-60
2022/09/30 16:31:15;;;;;;;103.20;34.05;;;;;;;;;;6157086;28;20355;-63
2022/09/30 16:34:18;;;;;;;;;;;;;;;;;;6159113;28;20062;-60
2022/09/30 16:37:20;;;;;;;88.22;29.00;;;;;;;;;;6159928;28;20393;-63
2022/09/30 16:40:25;;;;;;;84.28;30.25;;;;;;;;;;6157512;28;20153;-61
2022/09/30 16:43:26;;;;;;;97.28;34.38;;;;;;;;;;6149580;28;20082;-61
2022/09/30 16:46:27;;;;;;;99.93;34.75;;;;;;;;;;6142207;28;20055;-60
2022/09/30 16:49:27;;;;;;;93.57;34.58;;;;;;;;;;6145508;28;20063;-61
2022/09/30 16:52:28;;;;;;;94.30;33.65;;;;;;;;;;6137989;28;21407;-62
2022/09/30 16:55:30;;;;;;;106.93;35.65;;;;;;;;;;6141597;28;20427;-61
2022/09/30 16:58:31;;;;;;;102.95;35.15;;;;;;;;;;6141287;28;20487;-61
2022/09/30 17:01:31;;;;;;;94.30;32.45;;;;;;;;;;6135971;28;20149;-61
2022/09/30 17:04:33;;;;;;;93.50;31.65;;;;;;;;;;6136933;28;20495;-63
2022/09/30 17:07:34;;;;;;;85.88;30.33;;;;;;;;;;6137411;29;20050;-62
2022/09/30 17:10:35;;;;;;;111.43;38.33;;;;;;;;;;6136021;29;20070;-64
2022/09/30 17:13:36;;;;;;;123.22;40.53;;;;;;;;;;6131902;28;20415;-62
2022/09/30 17:16:37;;;;;;;118.60;40.30;;;;;;;;;;6143110;28;20093;-61
2022/09/30 17:19:37;;;;;;;129.95;43.03;;;;;;;;;;6139833;28;20418;-61
2022/09/30 17:22:40;;;;;;;127.50;40.80;;;;;;;;;;6142107;28;21163;-62
2022/09/30 17:25:41;;;;;;;;;;;;;;;;;;6142949;28;20062;-62
2022/09/30 17:28:42;;;;;;;105.93;34.53;;;;;;;;;;6138244;28;19937;-62
2022/09/30 17:31:43;;;;;;;113.47;38.07;;;;;;;;;;6139538;28;20086;-62
2022/09/30 17:34:44;;;;;;;113.90;37.53;;;;;;;;;;6122702;28;20061;-61
2022/09/30 17:37:46;;;;;;;104.63;34.28;;;;;;;;;;6137901;28;20051;-63
2022/09/30 17:44:06;;;;;;;107.10;34.13;;;;;;;;;;6147307;28;20409;-62
2022/09/30 17:47:07;;;;;;;109.78;36.95;;;;;;;;;;6156861;28;20042;-62
2022/09/30 17:50:08;;;;;;;110.20;36.67;;;;;;;;;;6158361;28;20090;-61
2022/09/30 17:53:12;;;;;;;119.05;37.30;;;;;;;;;;6154058;28;20082;-61
2022/09/30 17:56:21;;;;;;;121.35;37.03;;;;;;;;;;6156485;28;20054;-61
2022/09/30 17:59:24;;;;;;;117.30;38.63;;;;;;;;;;6156196;28;20475;-62
2022/09/30 18:02:25;;;;;;;128.50;38.45;;;;;;;;;;6154671;28;20055;-61
2022/09/30 18:05:26;;;;;;;109.95;36.45;;;;;;;;;;6156365;28;20046;-61
2022/09/30 18:08:27;;;;;;;115.55;37.50;;;;;;;;;;6156985;28;20503;-61
2022/09/30 18:11:30;;;;;;;118.03;38.13;;;;;;;;;;6154749;28;20109;-61
2022/09/30 18:14:34;;;;;;;131.63;39.38;;;;;;;;;;6156428;28;20035;-61
2022/09/30 18:17:35;;;;;;;116.53;38.45;;;;;;;;;;6156305;28;20471;-60
2022/09/30 18:20:41;;;;;;;127.75;41.47;;;;;;;;;;6158156;28;20061;-61
2022/09/30 18:23:42;;;;;;;132.95;40.83;;;;;;;;;;6150933;28;20538;-60
2022/09/30 18:26:42;;;;;;;125.82;39.47;;;;;;;;;;6157689;28;20635;-60